createdAt,value
2019-04-05T00:00:16.310Z,9.70
2019-04-05T00:02:45.802Z,9.62
2019-04-05T00:05:15.612Z,9.63
2019-04-05T00:07:45.188Z,9.66
2019-04-05T00:10:15.297Z,9.62
2019-04-05T00:12:44.735Z,9.57
2019-04-05T00:15:15.890Z,9.48
2019-04-05T00:17:45.509Z,9.39
2019-04-05T00:20:15.916Z,9.33
2019-04-05T00:22:45.348Z,9.26
2019-04-05T00:25:14.802Z,9.23
2019-04-05T00:27:44.229Z,9.17
2019-04-05T00:30:13.845Z,9.16
2019-04-05T00:32:43.269Z,9.17
2019-04-05T00:35:12.741Z,9.19
2019-04-05T00:37:42.173Z,9.21
2019-04-05T00:40:12.291Z,9.22
2019-04-05T00:42:41.746Z,9.21
2019-04-05T00:45:11.649Z,9.18
2019-04-05T00:47:41.109Z,9.13
2019-04-05T00:50:11.678Z,9.15
2019-04-05T00:52:41.288Z,9.18
2019-04-05T00:55:10.897Z,9.21
2019-04-05T00:57:40.402Z,9.28
2019-04-05T01:00:10.619Z,9.30
2019-04-05T01:02:40.122Z,9.34
2019-04-05T01:05:10.344Z,9.32
2019-04-05T01:07:39.912Z,9.33
2019-04-05T01:10:10.198Z,9.26
2019-04-05T01:12:40.794Z,9.25
2019-04-05T01:15:12.183Z,9.24
2019-04-05T01:17:42.223Z,9.24
2019-04-05T01:20:12.411Z,9.20
2019-04-05T01:22:43.826Z,9.21
2019-04-05T01:25:14.597Z,9.15
2019-04-05T01:27:48.211Z,9.08
2019-04-05T01:30:17.101Z,8.99
2019-04-05T01:32:47.366Z,8.93
2019-04-05T01:35:16.901Z,8.93
2019-04-05T01:37:47.040Z,8.96
2019-04-05T01:40:16.737Z,9.03
2019-04-05T01:42:46.935Z,9.07
2019-04-05T01:45:16.461Z,9.09
2019-04-05T01:47:46.006Z,9.09
2019-04-05T01:50:16.407Z,9.08
2019-04-05T01:52:46.373Z,9.06
2019-04-05T01:55:16.216Z,9.06
2019-04-05T01:57:45.651Z,9.12
2019-04-05T02:00:16.561Z,9.17
2019-04-05T02:02:46.369Z,9.22
2019-04-05T02:05:15.949Z,9.22
2019-04-05T02:07:45.514Z,9.20
2019-04-05T02:10:15.357Z,9.24
2019-04-05T02:12:44.859Z,9.27
2019-04-05T02:15:28.854Z,9.27
2019-04-05T02:17:58.621Z,9.27
2019-04-05T02:20:28.319Z,9.26
2019-04-05T02:22:57.926Z,9.29
2019-04-05T02:25:27.523Z,9.33
2019-04-05T02:27:57.090Z,9.35
2019-04-05T02:30:27.384Z,9.37
2019-04-05T02:32:57.896Z,9.37
2019-04-05T02:35:27.514Z,9.37
2019-04-05T02:37:57.099Z,9.37
2019-04-05T02:40:28.580Z,9.36
2019-04-05T02:42:59.975Z,9.37
2019-04-05T02:45:32.488Z,9.38
2019-04-05T02:48:05.469Z,9.39
2019-04-05T02:50:38.326Z,9.39
2019-04-05T02:53:10.348Z,9.38
2019-04-05T02:55:42.530Z,9.40
2019-04-05T02:58:14.179Z,9.41
2019-04-05T03:00:45.027Z,9.39
2019-04-05T03:03:16.406Z,9.37
2019-04-05T03:05:46.908Z,9.28
2019-04-05T03:08:17.297Z,9.26
2019-04-05T03:10:58.568Z,9.22
2019-04-05T03:13:30.436Z,9.17
2019-04-05T03:16:02.738Z,9.07
2019-04-05T03:18:34.631Z,9.05
2019-04-05T03:21:07.538Z,9.07
2019-04-05T03:23:40.368Z,9.09
2019-04-05T03:26:12.830Z,9.12
2019-04-05T03:28:44.138Z,9.11
2019-04-05T03:31:14.046Z,9.07
2019-04-05T03:33:43.832Z,9.00
2019-04-05T03:36:13.700Z,8.99
2019-04-05T03:38:43.166Z,8.98
2019-04-05T03:41:12.943Z,8.89
2019-04-05T03:43:42.662Z,8.85
2019-04-05T03:46:12.566Z,8.84
2019-04-05T03:48:42.563Z,8.89
2019-04-05T03:51:12.381Z,8.89
2019-04-05T03:53:42.009Z,8.92
2019-04-05T03:56:11.801Z,8.92
2019-04-05T03:58:41.428Z,8.86
2019-04-05T04:01:11.004Z,8.80
2019-04-05T04:03:40.593Z,8.74
2019-04-05T04:06:10.488Z,8.68
2019-04-05T04:08:40.373Z,8.67
2019-04-05T04:11:10.630Z,8.69
2019-04-05T04:13:40.216Z,8.75
2019-04-05T04:16:09.968Z,8.79
2019-04-05T04:18:39.878Z,8.73
2019-04-05T04:21:28.874Z,8.70
2019-04-05T04:23:58.926Z,8.69
2019-04-05T04:26:29.085Z,8.69
2019-04-05T04:28:58.545Z,8.66
2019-04-05T04:31:29.383Z,8.63
2019-04-05T04:33:59.610Z,8.64
2019-04-05T04:36:29.555Z,8.65
2019-04-05T04:38:59.121Z,8.64
2019-04-05T04:41:31.886Z,8.63
2019-04-05T04:44:00.686Z,8.58
2019-04-05T04:46:30.620Z,8.63
2019-04-05T04:49:00.263Z,8.65
2019-04-05T04:51:30.460Z,8.70
2019-04-05T04:54:00.260Z,8.76
2019-04-05T04:56:30.327Z,8.83
2019-04-05T04:59:00.536Z,8.88
2019-04-05T05:01:30.247Z,8.88
2019-04-05T05:04:00.172Z,8.88
2019-04-05T05:06:29.861Z,8.88
2019-04-05T05:09:00.064Z,8.85
2019-04-05T05:11:29.993Z,8.84
2019-04-05T05:13:59.585Z,8.84
2019-04-05T05:16:29.586Z,8.85
2019-04-05T05:18:59.485Z,8.88
2019-04-05T05:21:29.155Z,8.87
2019-04-05T05:23:58.987Z,8.89
2019-04-05T05:26:28.634Z,8.99
2019-04-05T05:28:58.650Z,9.02
2019-04-05T05:31:32.493Z,9.07
2019-04-05T05:34:02.158Z,9.15
2019-04-05T05:36:39.546Z,9.24
2019-04-05T05:39:10.639Z,9.32
2019-04-05T05:41:40.185Z,9.34
2019-04-05T05:44:09.646Z,9.28
2019-04-05T05:46:41.266Z,9.19
2019-04-05T05:49:10.457Z,9.14
2019-04-05T05:51:41.456Z,9.18
2019-04-05T05:54:11.010Z,9.22
2019-04-05T05:56:40.620Z,9.25
2019-04-05T05:59:10.060Z,9.24
2019-04-05T06:01:39.831Z,9.25
2019-04-05T06:04:09.301Z,9.30
2019-04-05T06:06:38.764Z,9.29
2019-04-05T06:09:10.529Z,9.28
2019-04-05T06:11:40.074Z,9.29
2019-04-05T06:14:09.559Z,9.32
2019-04-05T06:16:46.269Z,9.35
2019-04-05T06:19:15.927Z,9.35
2019-04-05T06:21:47.074Z,9.32
2019-04-05T06:24:19.152Z,9.34
2019-04-05T06:26:48.773Z,9.33
2019-04-05T06:29:18.299Z,9.30
2019-04-05T06:31:47.732Z,9.27
2019-04-05T06:34:17.307Z,9.21
2019-04-05T06:36:46.725Z,9.27
2019-04-05T06:39:17.160Z,9.29
2019-04-05T06:41:46.686Z,9.33
2019-04-05T06:44:16.540Z,9.34
2019-04-05T06:46:45.966Z,9.30
2019-04-05T06:49:15.399Z,9.26
2019-04-05T06:51:44.963Z,9.31
2019-04-05T06:54:14.422Z,9.41
2019-04-05T06:56:43.846Z,9.52
2019-04-05T06:59:13.300Z,9.65
2019-04-05T07:01:42.971Z,9.71
2019-04-05T07:04:12.435Z,9.79
2019-04-05T07:06:42.069Z,9.84
2019-04-05T07:09:11.515Z,9.85
2019-04-05T07:11:40.932Z,9.86
2019-04-05T07:14:10.563Z,9.81
2019-04-05T07:16:40.236Z,9.73
2019-04-05T07:19:09.973Z,9.68
2019-04-05T07:21:39.503Z,9.68
2019-04-05T07:24:09.046Z,9.66
2019-04-05T07:26:38.599Z,9.61
2019-04-05T07:29:09.603Z,9.53
2019-04-05T07:31:39.049Z,9.52
2019-04-05T07:34:08.596Z,9.64
2019-04-05T07:36:38.036Z,9.74
2019-04-05T07:39:08.125Z,9.70
2019-04-05T07:41:37.794Z,9.69
2019-04-05T07:44:07.256Z,9.75
2019-04-05T07:46:36.734Z,9.85
2019-04-05T07:49:06.320Z,9.86
2019-04-05T07:51:35.753Z,9.82
2019-04-05T07:54:05.357Z,9.76
2019-04-05T07:56:34.814Z,9.71
2019-04-05T07:59:04.424Z,9.63
2019-04-05T08:01:33.918Z,9.62
2019-04-05T08:04:03.540Z,9.65
2019-04-05T08:06:35.579Z,9.76
2019-04-05T08:09:11.390Z,9.89
2019-04-05T08:11:43.651Z,10.02
2019-04-05T08:14:14.131Z,9.99
2019-04-05T08:16:43.633Z,10.02
2019-04-05T08:19:13.348Z,9.97
2019-04-05T08:21:42.781Z,9.94
2019-04-05T08:24:12.237Z,9.94
2019-04-05T08:26:41.716Z,9.96
2019-04-05T08:29:11.276Z,10.03
2019-04-05T08:31:40.935Z,10.13
2019-04-05T08:34:10.398Z,10.22
2019-04-05T08:36:39.910Z,10.18
2019-04-05T08:39:09.389Z,10.19
2019-04-05T08:41:38.851Z,10.18
2019-04-05T08:44:08.555Z,10.10
2019-04-05T08:46:38.058Z,10.09
2019-04-05T08:49:11.092Z,10.11
2019-04-05T08:51:39.922Z,9.98
2019-04-05T08:54:09.352Z,9.94
2019-04-05T08:56:38.889Z,9.93
2019-04-05T08:59:08.359Z,9.97
2019-04-05T09:01:37.807Z,10.08
2019-04-05T09:04:07.324Z,10.22
2019-04-05T09:06:36.773Z,10.32
2019-04-05T09:09:07.590Z,10.35
2019-04-05T09:11:37.110Z,10.40
2019-04-05T09:14:06.584Z,10.42
2019-04-05T09:16:36.133Z,10.45
2019-04-05T09:19:05.703Z,10.48
2019-04-05T09:21:40.238Z,10.54
2019-04-05T09:24:08.135Z,10.54
2019-04-05T09:26:37.656Z,10.51
2019-04-05T09:29:09.279Z,10.48
2019-04-05T09:31:38.715Z,10.52
2019-04-05T09:34:08.185Z,10.62
2019-04-05T09:36:37.676Z,10.73
2019-04-05T09:39:14.967Z,10.82
2019-04-05T09:41:41.395Z,10.91
2019-04-05T09:44:10.954Z,10.97
2019-04-05T09:46:46.861Z,11.00
2019-04-05T09:49:11.825Z,10.79
2019-04-05T09:51:41.416Z,10.68
2019-04-05T09:54:10.987Z,10.71
2019-04-05T09:56:40.888Z,10.74
2019-04-05T09:59:10.312Z,10.76
2019-04-05T10:01:39.819Z,10.77
2019-04-05T10:04:10.277Z,10.80
2019-04-05T10:06:39.771Z,10.78
2019-04-05T10:09:09.465Z,10.75
2019-04-05T10:11:38.937Z,10.74
2019-04-05T10:14:08.584Z,10.78
2019-04-05T10:16:38.186Z,10.91
2019-04-05T10:19:07.809Z,11.02
2019-04-05T10:21:39.688Z,11.14
2019-04-05T10:24:09.100Z,11.21
2019-04-05T10:26:38.562Z,11.25
2019-04-05T10:29:08.044Z,11.18
2019-04-05T10:31:37.667Z,11.08
2019-04-05T10:34:07.150Z,11.11
2019-04-05T10:36:36.624Z,11.14
2019-04-05T10:39:09.328Z,11.17
2019-04-05T10:41:39.028Z,11.07
2019-04-05T10:44:10.224Z,11.05
2019-04-05T10:46:39.817Z,11.04
2019-04-05T10:49:09.518Z,11.06
2019-04-05T10:51:39.083Z,11.10
2019-04-05T10:54:09.568Z,11.19
2019-04-05T10:56:39.305Z,11.31
2019-04-05T10:59:09.186Z,11.44
2019-04-05T11:01:38.754Z,11.33
2019-04-05T11:04:08.241Z,11.21
2019-04-05T11:06:37.717Z,11.22
2019-04-05T11:09:07.956Z,11.15
2019-04-05T11:11:37.625Z,11.07
2019-04-05T11:14:13.640Z,11.15
2019-04-05T11:16:38.514Z,11.19
2019-04-05T11:19:07.958Z,11.26
2019-04-05T11:21:37.434Z,11.33
2019-04-05T11:24:06.867Z,11.40
2019-04-05T11:26:36.482Z,11.18
2019-04-05T11:29:07.861Z,11.23
2019-04-05T11:31:37.492Z,11.57
2019-04-05T11:34:06.943Z,11.79
2019-04-05T11:36:36.851Z,11.89
2019-04-05T11:39:08.839Z,11.93
2019-04-05T11:42:08.168Z,11.92
2019-04-05T11:51:59.726Z,11.72
2019-04-05T11:54:26.963Z,11.50
2019-04-05T11:56:58.875Z,11.49
2019-04-05T11:59:44.966Z,11.40
2019-04-05T12:02:50.117Z,11.33
2019-04-05T12:08:20.144Z,11.15
2019-04-05T12:10:56.418Z,11.13
2019-04-05T12:13:39.943Z,11.09
2019-04-05T12:16:19.594Z,11.10
2019-04-05T12:18:59.033Z,11.17
2019-04-05T12:21:28.255Z,11.24
2019-04-05T12:24:04.557Z,11.21
2019-04-05T12:26:42.521Z,11.23
2019-04-05T12:29:13.093Z,11.32
2019-04-05T12:31:46.035Z,11.47
2019-04-05T12:34:15.864Z,11.52
2019-04-05T12:36:48.380Z,11.57
2019-04-05T12:39:19.772Z,11.59
2019-04-05T12:41:49.353Z,11.68
2019-04-05T12:44:24.756Z,11.70
2019-04-05T12:46:53.440Z,11.76
2019-04-05T12:49:23.370Z,11.89
2019-04-05T12:52:05.268Z,11.93
2019-04-05T12:54:56.106Z,11.90
2019-04-05T12:58:00.686Z,11.75
2019-04-05T13:00:34.668Z,11.63
2019-04-05T13:03:04.624Z,11.59
2019-04-05T13:05:42.299Z,11.59
2019-04-05T13:09:12.336Z,11.56
2019-04-05T13:11:54.483Z,11.53
2019-04-05T13:42:50.194Z,11.83
2019-04-05T13:43:33.159Z,11.60
2019-04-05T13:45:19.940Z,11.98
2019-04-05T13:47:49.635Z,12.06
2019-04-05T13:50:19.640Z,11.97
2019-04-05T13:52:49.509Z,11.87
2019-04-05T13:55:19.307Z,11.89
2019-04-05T13:57:49.680Z,11.85
2019-04-05T14:00:20.553Z,11.86
2019-04-05T14:02:51.356Z,11.89
2019-04-05T14:05:22.270Z,11.93
2019-04-05T14:07:54.666Z,11.97
2019-04-05T14:10:23.732Z,12.08
2019-04-05T14:12:53.429Z,12.18
2019-04-05T14:15:25.448Z,12.18
2019-04-05T14:17:55.370Z,12.06
2019-04-05T14:20:26.180Z,12.03
2019-04-05T14:22:56.788Z,11.99
2019-04-05T14:25:30.136Z,12.03
2019-04-05T14:27:59.629Z,12.15
2019-04-05T14:30:32.444Z,12.24
2019-04-05T14:33:01.522Z,12.26
2019-04-05T14:35:31.997Z,12.28
2019-04-05T14:38:02.347Z,12.28
2019-04-05T14:40:35.100Z,12.29
2019-04-05T14:43:05.438Z,12.29
2019-04-05T14:45:35.019Z,12.31
2019-04-05T14:48:05.626Z,12.33
2019-04-05T14:50:36.694Z,12.36
2019-04-05T14:53:07.218Z,12.28
2019-04-05T14:55:39.575Z,12.20
2019-04-05T14:58:10.629Z,12.21
2019-04-05T15:00:41.195Z,12.20
2019-04-05T15:03:10.962Z,12.21
2019-04-05T15:05:41.363Z,12.20
2019-04-05T15:08:11.338Z,12.17
2019-04-05T15:10:41.321Z,12.19
2019-04-05T15:13:11.002Z,12.20
2019-04-05T15:15:41.033Z,12.16
2019-04-05T15:18:10.937Z,12.15
2019-04-05T15:20:40.564Z,12.12
2019-04-05T15:23:13.903Z,12.08
2019-04-05T15:25:42.020Z,12.09
2019-04-05T15:28:11.548Z,12.09
2019-04-05T15:30:42.391Z,12.06
2019-04-05T15:33:12.415Z,12.02
2019-04-05T15:35:43.968Z,12.05
2019-04-05T15:38:13.791Z,12.04
2019-04-05T15:40:44.797Z,12.02
2019-04-05T15:43:15.201Z,11.97
2019-04-05T15:45:45.965Z,11.91
2019-04-05T15:48:16.495Z,11.90
2019-04-05T15:50:46.525Z,11.92
2019-04-05T15:53:17.810Z,12.00
2019-04-05T15:55:48.471Z,12.08
2019-04-05T15:58:18.473Z,12.15
2019-04-05T16:00:48.804Z,12.14
2019-04-05T16:03:19.130Z,12.14
2019-04-05T16:05:49.641Z,12.18
2019-04-05T16:08:19.495Z,12.16
2019-04-05T16:10:49.237Z,12.14
2019-04-05T16:13:19.145Z,12.21
2019-04-05T16:15:48.904Z,12.28
2019-04-05T16:18:18.657Z,12.35
2019-04-05T16:20:48.426Z,12.36
2019-04-05T16:23:18.300Z,12.43
2019-04-05T16:25:48.765Z,12.46
2019-04-05T16:28:19.198Z,12.39
2019-04-05T16:30:49.537Z,12.36
2019-04-05T16:33:19.451Z,12.37
2019-04-05T16:35:49.185Z,12.39
2019-04-05T16:38:20.073Z,12.45
2019-04-05T16:40:49.788Z,12.47
2019-04-05T16:43:19.565Z,12.39
2019-04-05T16:45:49.481Z,12.36
2019-04-05T16:48:19.151Z,12.36
2019-04-05T16:50:49.001Z,12.37
2019-04-05T16:53:19.557Z,12.38
2019-04-05T16:55:49.639Z,12.40
2019-04-05T16:58:19.595Z,12.39
2019-04-05T17:00:49.594Z,12.37
2019-04-05T17:03:19.065Z,12.34
2019-04-05T17:05:48.731Z,12.27
2019-04-05T17:08:18.243Z,12.23
2019-04-05T17:10:47.874Z,12.19
2019-04-05T17:13:18.051Z,12.11
2019-04-05T17:15:47.797Z,12.01
2019-04-05T17:18:17.281Z,11.94
2019-04-05T17:20:46.716Z,11.90
2019-04-05T17:23:16.747Z,11.84
2019-04-05T17:25:46.429Z,11.78
2019-04-05T17:28:16.421Z,11.74
2019-04-05T17:30:45.861Z,11.74
2019-04-05T17:33:15.664Z,11.72
2019-04-05T17:35:46.109Z,11.71
2019-04-05T17:38:15.841Z,11.72
2019-04-05T17:40:45.321Z,11.70
2019-04-05T17:43:15.031Z,11.65
2019-04-05T17:45:44.642Z,11.63
2019-04-05T17:48:14.207Z,11.60
2019-04-05T17:50:44.150Z,11.53
2019-04-05T17:53:14.676Z,11.47
2019-04-05T17:55:44.784Z,11.37
2019-04-05T17:58:16.568Z,11.29
2019-04-05T18:00:46.360Z,11.25
2019-04-05T18:03:15.917Z,11.23
2019-04-05T18:05:45.551Z,11.22
2019-04-05T18:08:15.218Z,11.19
2019-04-05T18:10:44.846Z,11.17
2019-04-05T18:13:14.281Z,11.16
2019-04-05T18:15:52.233Z,11.11
2019-04-05T18:18:15.282Z,11.10
2019-04-05T18:20:44.831Z,11.06
2019-04-05T18:23:24.160Z,11.07
2019-04-05T18:25:45.664Z,11.00
2019-04-05T18:28:15.244Z,10.93
2019-04-05T18:30:44.915Z,10.86
2019-04-05T18:33:14.423Z,10.83
2019-04-05T18:35:44.283Z,10.81
2019-04-05T18:38:13.879Z,10.76
2019-04-05T18:40:43.626Z,10.69
2019-04-05T18:43:13.106Z,10.64
2019-04-05T18:45:42.784Z,10.54
2019-04-05T18:48:12.265Z,10.41
2019-04-05T18:50:41.819Z,10.29
2019-04-05T18:53:11.625Z,10.19
2019-04-05T18:55:41.657Z,10.11
2019-04-05T18:58:11.622Z,10.05
2019-04-05T19:00:41.114Z,10.01
2019-04-05T19:03:10.977Z,9.95
2019-04-05T19:05:40.759Z,9.90
2019-04-05T19:08:11.497Z,9.83
2019-04-05T19:10:42.016Z,9.80
2019-04-05T19:13:12.770Z,9.74
2019-04-05T19:15:43.721Z,9.68
2019-04-05T19:18:13.346Z,9.62
2019-04-05T19:20:42.864Z,9.57
2019-04-05T19:23:13.283Z,9.52
2019-04-05T19:25:43.007Z,9.49
2019-04-05T19:28:12.789Z,9.42
2019-04-05T19:50:53.717Z,8.86
2019-04-05T19:53:23.226Z,8.79
2019-04-05T19:55:53.032Z,8.76
2019-04-05T19:58:23.037Z,8.72
2019-04-05T20:00:52.780Z,8.69
2019-04-05T20:03:22.668Z,8.66
2019-04-05T20:05:52.262Z,8.66
2019-04-05T20:08:22.034Z,8.64
2019-04-05T20:10:53.541Z,8.65
2019-04-05T20:13:23.179Z,8.61
2019-04-05T20:15:52.623Z,8.60
2019-04-05T20:18:22.387Z,8.59
2019-04-05T20:20:51.860Z,8.57
2019-04-05T20:23:23.093Z,8.55
2019-04-05T20:25:52.768Z,8.52
2019-04-05T20:28:22.320Z,8.47
2019-04-05T20:30:52.283Z,8.43
2019-04-05T20:33:22.133Z,8.38
2019-04-05T20:35:51.802Z,8.34
2019-04-05T20:38:22.186Z,8.30
2019-04-05T20:40:51.900Z,8.28
2019-04-05T20:43:21.400Z,8.24
2019-04-05T20:45:52.640Z,8.22
2019-04-05T20:48:42.215Z,8.21
2019-04-05T20:51:22.356Z,8.19
2019-04-05T20:53:54.888Z,8.16
2019-04-05T20:56:26.651Z,8.14
2019-04-05T20:58:57.681Z,8.11
2019-04-05T21:01:27.105Z,8.07
2019-04-05T21:03:56.855Z,8.06
2019-04-05T21:06:26.297Z,8.05
2019-04-05T21:08:55.822Z,8.04
2019-04-05T21:11:27.172Z,8.02
2019-04-05T21:13:56.434Z,8.00
2019-04-05T21:16:26.734Z,7.99
2019-04-05T21:18:56.545Z,7.99
2019-04-05T21:21:27.484Z,7.98
2019-04-05T21:23:57.042Z,7.97
2019-04-05T21:26:26.625Z,7.94
2019-04-05T21:28:56.084Z,7.93
2019-04-05T21:31:25.587Z,7.91
2019-04-05T21:33:55.128Z,7.87
2019-04-05T21:36:24.630Z,7.85
2019-04-05T21:38:54.343Z,7.82
2019-04-05T21:41:23.819Z,7.78
2019-04-05T21:43:53.419Z,7.72
2019-04-05T21:46:22.865Z,7.68
2019-04-05T21:48:52.430Z,7.65
2019-04-05T21:51:24.633Z,7.64
2019-04-05T21:53:53.907Z,7.62
2019-04-05T21:56:23.460Z,7.61
2019-04-05T21:58:53.280Z,7.60
2019-04-05T22:01:23.351Z,7.59
2019-04-05T22:03:54.558Z,7.58
2019-04-05T22:06:23.998Z,7.59
2019-04-05T22:08:54.016Z,7.58
2019-04-05T22:11:23.575Z,7.56
2019-04-05T22:13:53.122Z,7.53
2019-04-05T22:16:22.665Z,7.49
2019-04-05T22:18:52.494Z,7.46
2019-04-05T22:21:22.288Z,7.43
2019-04-05T22:23:51.913Z,7.41
2019-04-05T22:26:21.338Z,7.38
2019-04-05T22:28:50.780Z,7.36
2019-04-05T22:31:20.345Z,7.35
2019-04-05T22:33:50.075Z,7.33
2019-04-05T22:36:19.507Z,7.32
2019-04-05T22:42:11.886Z,7.30
2019-04-05T22:44:41.706Z,7.30
2019-04-05T22:47:12.363Z,7.29
2019-04-05T22:49:41.972Z,7.27
2019-04-05T22:52:11.480Z,7.26
2019-04-05T22:54:40.968Z,7.24
2019-04-05T22:57:10.511Z,7.22
2019-04-05T22:59:39.952Z,7.21
2019-04-05T23:02:09.435Z,7.21
2019-04-05T23:04:38.885Z,7.20
2019-04-05T23:07:08.321Z,7.17
2019-04-05T23:09:37.862Z,7.17
2019-04-05T23:12:07.301Z,7.15
2019-04-05T23:14:36.755Z,7.15
2019-04-05T23:17:06.228Z,7.13
2019-04-05T23:19:35.733Z,7.13
2019-04-05T23:22:05.353Z,7.14
2019-04-05T23:24:34.818Z,7.12
2019-04-05T23:27:04.268Z,7.11
2019-04-05T23:29:33.823Z,7.10
2019-04-05T23:32:03.267Z,7.10
2019-04-05T23:34:32.741Z,7.08
2019-04-05T23:37:02.211Z,7.07
2019-04-05T23:39:32.905Z,7.07
2019-04-05T23:42:02.705Z,7.08
2019-04-05T23:44:32.201Z,7.08
2019-04-05T23:47:01.681Z,7.08
2019-04-05T23:49:31.164Z,7.08
2019-04-05T23:52:00.602Z,7.09
2019-04-05T23:54:32.315Z,7.08
2019-04-05T23:57:01.826Z,7.07
2019-04-05T23:59:31.736Z,7.07
